createdAt,value
2018-03-11T00:03:17.143Z,4.43
2018-03-11T00:08:15.416Z,5.27
2018-03-11T00:13:13.374Z,4.20
2018-03-11T00:18:13.663Z,4.40
2018-03-11T00:23:11.607Z,4.27
2018-03-11T00:28:10.081Z,3.90
2018-03-11T00:33:07.389Z,4.00
2018-03-11T00:38:11.527Z,3.90
2018-03-11T00:43:09.544Z,3.40
2018-03-11T00:48:13.362Z,3.60
2018-03-11T00:53:11.395Z,3.40
2018-03-11T00:58:14.655Z,3.40
2018-03-11T01:03:11.876Z,4.00
2018-03-11T01:08:12.035Z,3.77
2018-03-11T01:13:09.267Z,3.40
2018-03-11T01:18:13.994Z,3.20
2018-03-11T01:23:11.293Z,3.93
2018-03-11T01:28:11.700Z,4.00
2018-03-11T01:33:08.914Z,4.53
2018-03-11T01:38:09.816Z,4.30
2018-03-11T01:43:07.028Z,4.40
2018-03-11T01:48:09.972Z,4.00
2018-03-11T01:53:08.051Z,4.37
2018-03-11T01:58:08.743Z,4.20
2018-03-11T02:03:06.677Z,7.10
2018-03-11T02:08:06.915Z,7.97
2018-03-11T02:13:04.181Z,7.20
2018-03-11T02:18:02.516Z,7.17
2018-03-11T02:22:59.740Z,5.90
2018-03-11T02:28:01.297Z,6.77
2018-03-11T02:32:58.597Z,6.50
2018-03-11T02:37:59.775Z,5.90
2018-03-11T02:42:57.068Z,5.30
2018-03-11T02:48:00.523Z,5.03
2018-03-11T02:52:57.710Z,4.80
2018-03-11T02:58:01.791Z,5.07
2018-03-11T03:02:59.092Z,5.00
2018-03-11T03:08:03.630Z,4.63
2018-03-11T03:13:00.857Z,5.70
2018-03-11T03:17:59.101Z,6.23
2018-03-11T03:22:57.378Z,6.80
2018-03-11T03:28:00.046Z,5.67
2018-03-11T03:32:57.333Z,8.57
2018-03-11T03:38:01.217Z,3.20
2018-03-11T03:42:58.612Z,3.17
2018-03-11T03:48:10.516Z,2.90
2018-03-11T03:53:07.823Z,3.10
2018-03-11T03:58:09.725Z,3.10
2018-03-11T04:03:06.961Z,3.33
2018-03-11T04:08:07.529Z,5.10
2018-03-11T04:13:04.761Z,6.30
2018-03-11T04:18:09.472Z,6.20
2018-03-11T04:23:06.683Z,8.03
2018-03-11T04:28:07.684Z,6.87
2018-03-11T04:33:05.641Z,3.93
2018-03-11T04:38:03.909Z,3.70
2018-03-11T04:43:01.185Z,3.50
2018-03-11T04:47:59.413Z,4.90
2018-03-11T04:52:56.736Z,9.43
2018-03-11T04:58:00.077Z,9.60
2018-03-11T05:02:57.352Z,9.97
2018-03-11T05:07:58.239Z,40.63
2018-03-11T05:12:56.538Z,57.03
2018-03-11T05:18:04.437Z,54.97
2018-03-11T05:23:01.728Z,39.43
2018-03-11T05:28:13.282Z,27.07
2018-03-11T05:33:10.493Z,22.73
2018-03-11T05:38:18.478Z,16.13
2018-03-11T05:43:15.664Z,15.00
2018-03-11T05:48:13.877Z,31.90
2018-03-11T05:53:11.060Z,33.90
2018-03-11T05:58:18.585Z,35.77
2018-03-11T06:03:15.713Z,29.87
2018-03-11T06:08:13.988Z,19.43
2018-03-11T06:13:11.438Z,18.00
2018-03-11T06:18:12.366Z,4.63
2018-03-11T06:23:09.390Z,2.60
2018-03-11T06:28:12.239Z,4.30
2018-03-11T06:33:09.417Z,3.07
2018-03-11T06:38:07.600Z,3.30
2018-03-11T06:43:05.045Z,3.70
2018-03-11T06:48:03.338Z,2.60
2018-03-11T06:53:00.637Z,3.43
2018-03-11T06:58:01.600Z,2.87
2018-03-11T07:02:58.742Z,2.37
2018-03-11T07:07:57.075Z,2.60
2018-03-11T07:12:54.399Z,2.77
2018-03-11T07:17:58.915Z,2.50
2018-03-11T07:22:56.194Z,2.77
2018-03-11T07:27:57.198Z,2.80
2018-03-11T07:32:55.138Z,3.43
2018-03-11T07:37:58.989Z,6.70
2018-03-11T07:42:56.272Z,5.87
2018-03-11T07:47:55.817Z,11.87
2018-03-11T07:52:53.045Z,11.80
2018-03-11T07:57:53.786Z,9.33
2018-03-11T08:02:51.105Z,4.73
2018-03-11T08:07:50.766Z,3.70
2018-03-11T08:12:47.985Z,8.80
2018-03-11T08:17:56.072Z,8.07
2018-03-11T08:22:53.190Z,8.17
2018-03-11T08:27:53.924Z,5.50
2018-03-11T08:32:51.162Z,6.30
2018-03-11T08:37:58.719Z,5.10
2018-03-11T08:42:56.184Z,5.37
2018-03-11T08:48:08.508Z,7.03
2018-03-11T08:53:05.789Z,5.63
2018-03-11T08:58:06.014Z,13.13
2018-03-11T09:03:03.170Z,10.50
2018-03-11T09:08:06.769Z,12.20
2018-03-11T09:13:03.804Z,14.20
2018-03-11T09:18:05.433Z,10.73
2018-03-11T09:23:03.326Z,8.50
2018-03-11T09:28:13.820Z,6.57
2018-03-11T09:33:11.125Z,5.43
2018-03-11T09:38:20.385Z,7.23
2018-03-11T09:43:18.330Z,6.53
2018-03-11T09:48:23.018Z,6.03
2018-03-11T09:53:20.218Z,10.70
2018-03-11T09:58:17.456Z,4.83
2018-03-11T10:03:14.834Z,3.27
2018-03-11T10:08:28.790Z,2.60
2018-03-11T10:13:25.991Z,2.30
2018-03-11T10:18:24.334Z,2.80
2018-03-11T10:23:21.653Z,5.90
2018-03-11T10:28:24.396Z,8.93
2018-03-11T10:33:21.533Z,7.10
2018-03-11T10:38:21.945Z,6.43
2018-03-11T10:43:19.216Z,7.83
2018-03-11T10:48:27.016Z,4.53
2018-03-11T10:53:24.188Z,5.30
2018-03-11T10:58:23.341Z,4.47
2018-03-11T11:03:26.541Z,5.20
2018-03-11T11:08:31.769Z,5.03
2018-03-11T11:13:29.078Z,4.93
2018-03-11T11:18:32.270Z,4.97
2018-03-11T11:23:30.021Z,5.43
2018-03-11T11:28:33.195Z,5.13
2018-03-11T11:33:30.442Z,6.17
2018-03-11T11:38:33.944Z,5.80
2018-03-11T11:43:31.140Z,4.27
2018-03-11T11:48:36.230Z,4.47
2018-03-11T11:53:33.462Z,4.63
2018-03-11T11:58:34.682Z,4.50
2018-03-11T12:03:32.026Z,7.17
2018-03-11T12:08:35.766Z,5.83
2018-03-11T12:13:33.134Z,7.03
2018-03-11T12:18:30.423Z,5.03
2018-03-11T12:23:28.281Z,5.20
2018-03-11T12:28:32.153Z,4.40
2018-03-11T12:33:29.417Z,4.77
2018-03-11T12:38:32.926Z,4.70
2018-03-11T12:43:30.130Z,4.57
2018-03-11T12:48:31.295Z,4.13
2018-03-11T12:53:28.545Z,5.30
2018-03-11T12:58:29.078Z,5.30
2018-03-11T13:03:26.376Z,4.70
2018-03-11T13:08:25.060Z,4.93
2018-03-11T13:13:22.943Z,4.53
2018-03-11T13:18:44.438Z,3.90
2018-03-11T13:23:41.711Z,3.63
2018-03-11T13:28:50.226Z,3.63
2018-03-11T13:39:41.154Z,4.30
2018-03-11T13:44:38.574Z,4.30
2018-03-11T13:49:35.618Z,4.97
2018-03-11T13:54:33.873Z,3.83
2018-03-11T13:59:31.052Z,3.87
2018-03-11T14:04:29.393Z,3.47
2018-03-11T14:09:26.498Z,4.73
2018-03-11T14:14:24.801Z,3.87
2018-03-11T14:19:23.188Z,3.50
2018-03-11T14:24:21.610Z,3.87
2018-03-11T14:29:19.333Z,3.50
2018-03-11T14:34:16.365Z,5.70
2018-03-11T14:39:13.537Z,8.33
2018-03-11T14:44:10.694Z,5.20
2018-03-11T14:49:07.814Z,8.27
2018-03-11T14:54:05.078Z,5.23
2018-03-11T14:59:03.324Z,4.33
2018-03-11T15:04:00.544Z,5.67
2018-03-11T15:08:57.956Z,4.57
2018-03-11T15:13:55.334Z,4.07
2018-03-11T15:18:56.289Z,5.03
2018-03-11T15:23:53.568Z,5.37
2018-03-11T15:28:54.430Z,5.30
2018-03-11T15:33:51.741Z,5.27
2018-03-11T15:38:52.114Z,6.37
2018-03-11T15:43:49.278Z,8.20
2018-03-11T15:48:47.382Z,9.83
2018-03-11T15:53:44.761Z,11.53
2018-03-11T15:58:41.995Z,7.87
2018-03-11T16:03:40.027Z,10.50
2018-03-11T16:08:39.646Z,10.67
2018-03-11T16:13:37.001Z,13.27
2018-03-11T16:18:37.509Z,25.77
2018-03-11T16:23:34.767Z,23.27
2018-03-11T16:28:35.481Z,16.10
2018-03-11T16:33:32.658Z,15.37
2018-03-11T16:38:33.846Z,16.50
2018-03-11T16:43:31.174Z,19.27
2018-03-11T16:48:31.952Z,18.97
2018-03-11T16:53:29.270Z,20.23
2018-03-11T16:58:29.699Z,27.07
2018-03-11T17:03:27.018Z,17.80
2018-03-11T17:08:25.408Z,20.90
2018-03-11T17:13:22.797Z,16.10
2018-03-11T17:18:20.016Z,15.03
2018-03-11T17:23:17.284Z,17.23
2018-03-11T17:28:14.553Z,23.90
2018-03-11T17:33:11.770Z,33.27
2018-03-11T17:38:12.642Z,20.17
2018-03-11T17:43:09.871Z,10.67
2018-03-11T17:48:07.197Z,30.50
2018-03-11T17:53:04.323Z,11.57
2018-03-11T17:58:02.774Z,14.23
2018-03-11T18:03:00.023Z,15.33
2018-03-11T18:07:58.452Z,20.17
2018-03-11T18:12:55.743Z,16.77
2018-03-11T18:17:56.526Z,11.13
2018-03-11T18:22:53.891Z,6.07
2018-03-11T18:27:52.146Z,4.87
2018-03-11T18:32:49.514Z,14.67
2018-03-11T18:37:48.404Z,19.67
2018-03-11T18:42:45.822Z,25.83
2018-03-11T18:47:47.197Z,11.90
2018-03-11T18:52:45.006Z,6.40
2018-03-11T18:57:43.632Z,6.50
2018-03-11T19:02:41.503Z,42.97
2018-03-11T19:07:40.126Z,26.00
2018-03-11T19:12:37.298Z,7.90
2018-03-11T19:17:38.101Z,12.80
2018-03-11T19:22:35.402Z,11.50
2018-03-11T19:27:37.675Z,30.73
2018-03-11T19:32:34.834Z,18.30
2018-03-11T19:37:33.218Z,8.03
2018-03-11T19:42:30.593Z,7.87
2018-03-11T19:47:34.186Z,8.10
2018-03-11T19:52:31.311Z,6.70
2018-03-11T19:57:32.399Z,8.57
2018-03-11T20:02:29.715Z,9.37
2018-03-11T20:07:33.091Z,7.70
2018-03-11T20:12:30.396Z,7.50
2018-03-11T20:17:31.135Z,7.87
2018-03-11T20:22:28.553Z,22.63
2018-03-11T20:27:31.001Z,14.40
2018-03-11T20:32:28.350Z,18.90
2018-03-11T20:37:28.967Z,8.90
2018-03-11T20:42:26.327Z,8.80
2018-03-11T20:47:24.772Z,18.80
2018-03-11T20:52:21.985Z,9.53
2018-03-11T20:57:22.846Z,7.10
2018-03-11T21:02:20.145Z,8.67
2018-03-11T21:07:17.382Z,6.90
2018-03-11T21:12:15.010Z,8.33
2018-03-11T21:17:15.679Z,14.43
2018-03-11T21:22:13.272Z,8.07
2018-03-11T21:27:11.534Z,5.87
2018-03-11T21:32:08.666Z,5.67
2018-03-11T21:37:09.158Z,5.83
2018-03-11T21:42:06.395Z,5.03
2018-03-11T21:47:06.916Z,8.57
2018-03-11T21:52:04.680Z,10.07
2018-03-11T21:57:02.870Z,12.37
2018-03-11T22:01:59.993Z,6.47
2018-03-11T22:06:58.428Z,4.57
2018-03-11T22:11:55.735Z,5.07
2018-03-11T22:17:00.225Z,7.57
2018-03-11T22:21:58.014Z,7.93
2018-03-11T22:26:59.324Z,10.50
2018-03-11T22:31:56.527Z,8.03
2018-03-11T22:36:57.062Z,9.33
2018-03-11T22:41:54.994Z,9.17
2018-03-11T22:46:56.014Z,8.03
2018-03-11T22:51:53.249Z,5.63
2018-03-11T22:56:51.554Z,7.17
2018-03-11T23:01:48.933Z,7.40
2018-03-11T23:06:52.126Z,7.90
2018-03-11T23:11:49.197Z,6.80
2018-03-11T23:16:47.508Z,6.10
2018-03-11T23:21:44.797Z,7.03
2018-03-11T23:26:42.949Z,5.47
2018-03-11T23:31:39.930Z,5.07
2018-03-11T23:36:40.748Z,6.17
2018-03-11T23:41:38.769Z,5.57
2018-03-11T23:46:39.893Z,6.00
2018-03-11T23:51:37.219Z,5.20
2018-03-11T23:56:38.017Z,5.00
